Roberval, Canada
Current Conditions -  °F | °C
As of 2:00 AM on Saturday 20 Dec 2014 (Local Time) from CYRJ Reporting Station
Clear Clear  
Wind Chill:   Ceiling: Unl
Heat Index: 10°   Visibility: 25mi
Dew Point:   Wind: 7mph
Humidity: 73%   Direction: 290°WNW
Pressure: 30.27"   Gusts: NA
Location:  48.52°N, 72.22°W
Report Text: CYRJ 200700Z 29006KT 25SM SKC M12/M16 A3027 RMK SLP266
Loading
Personal Weather Stations






























Interactive Weather Map New forecast layout! Learn more

10-Day Weather Forecast

Advertisements
Track Severe Weather on mobile